Time;durP1;ratioP1;P1;durP2;ratioP2;P2;SDS_P1;SDS_P2;PMS_P1;PMS_P2;Temp;Humidity;BMP_temperature;BMP_pressure;BME280_temperature;BME280_humidity;BME280_pressure;Samples;Min_cycle;Max_cycle;Signal;HPM_P1;HPM_P2
2022/09/03 00:00:17;;;;;;;2.10;1.33;;;20.10;99.90;;;;;;7395313;19;20138;-81
2022/09/03 00:02:51;;;;;;;3.83;1.25;;;20.20;99.90;;;;;;7397022;19;20133;-82
2022/09/03 00:05:40;;;;;;;1.98;1.35;;;20.00;99.90;;;;;;7398630;19;20142;-81
2022/09/03 00:08:21;;;;;;;3.17;1.45;;;19.90;99.90;;;;;;7394900;19;20165;-81
2022/09/03 00:11:00;;;;;;;1.20;1.10;;;20.10;99.90;;;;;;7396865;19;20142;-82
2022/09/03 00:13:58;;;;;;;1.75;1.40;;;20.20;99.90;;;;;;7396030;19;20514;-80
2022/09/03 00:16:28;;;;;;;2.70;1.60;;;20.20;99.90;;;;;;7394865;19;20635;-83
2022/09/03 00:18:59;;;;;;;2.92;1.95;;;20.30;99.90;;;;;;7395069;19;20152;-81
2022/09/03 00:21:45;;;;;;;3.38;1.40;;;20.40;99.90;;;;;;7395448;19;20151;-78
2022/09/03 00:24:15;;;;;;;3.05;1.30;;;20.40;99.90;;;;;;7396181;19;20146;-83
2022/09/03 00:26:50;;;;;;;2.95;1.30;;;20.50;99.90;;;;;;7390782;19;20134;-81
2022/09/03 00:29:24;;;;;;;1.67;1.30;;;20.50;99.90;;;;;;7388528;19;20150;-82
2022/09/03 00:31:55;;;;;;;1.95;1.30;;;20.70;99.90;;;;;;7391561;19;20134;-82
2022/09/03 00:34:38;;;;;;;2.30;1.42;;;20.70;99.90;;;;;;7391833;19;20142;-82
2022/09/03 00:37:04;;;;;;;1.73;1.30;;;20.60;99.90;;;;;;7388904;19;20528;-82
2022/09/03 00:39:30;;;;;;;1.92;1.40;;;20.50;99.90;;;;;;7389428;19;20159;-82
2022/09/03 00:42:32;;;;;;;4.95;1.60;;;20.50;99.90;;;;;;7392928;19;20146;-81
2022/09/03 00:45:47;;;;;;;3.10;1.30;;;20.50;99.90;;;;;;7396991;19;20598;-81
2022/09/03 00:48:30;;;;;;;1.30;1.05;;;20.40;99.90;;;;;;7392058;19;20142;-79
2022/09/03 00:51:11;;;;;;;3.53;1.38;;;20.10;99.90;;;;;;7398843;19;20129;-81
2022/09/03 00:54:07;;;;;;;2.22;1.20;;;20.00;99.90;;;;;;7403052;19;20145;-79
2022/09/03 00:56:56;;;;;;;2.72;1.38;;;19.80;99.90;;;;;;7402711;19;20131;-81
2022/09/03 00:59:43;;;;;;;1.00;0.90;;;20.00;99.90;;;;;;7404905;19;20130;-81
2022/09/03 01:02:23;;;;;;;2.35;1.05;;;20.20;99.90;;;;;;7406169;19;20138;-77
2022/09/03 01:05:25;;;;;;;1.90;1.08;;;20.30;99.90;;;;;;7404274;19;20142;-80
2022/09/03 01:08:13;;;;;;;1.35;1.08;;;20.40;99.90;;;;;;7403679;19;20170;-81
2022/09/03 01:10:52;;;;;;;2.45;1.40;;;20.40;99.90;;;;;;7404035;19;20142;-78
2022/09/03 01:13:22;;;;;;;2.33;1.27;;;20.50;99.90;;;;;;7403024;19;20167;-80
2022/09/03 01:16:08;;;;;;;2.10;1.30;;;20.50;99.90;;;;;;7403511;19;20158;-79
2022/09/03 01:18:56;;;;;;;2.03;1.50;;;20.50;99.90;;;;;;7402954;19;20147;-80
2022/09/03 01:21:42;;;;;;;3.53;1.20;;;20.50;99.90;;;;;;7403458;19;20141;-81
2022/09/03 01:24:27;;;;;;;1.48;1.10;;;20.50;99.90;;;;;;7402546;19;20646;-80
2022/09/03 01:27:07;;;;;;;1.17;1.05;;;20.50;99.90;;;;;;7403647;19;20133;-80
2022/09/03 01:29:47;;;;;;;1.75;1.20;;;20.60;99.90;;;;;;7401937;19;20153;-82
2022/09/03 01:32:30;;;;;;;2.28;1.05;;;20.50;99.90;;;;;;7395535;19;20141;-76
2022/09/03 01:35:18;;;;;;;1.85;1.40;;;20.50;99.90;;;;;;7394801;19;20154;-82
2022/09/03 01:37:46;;;;;;;1.20;0.98;;;20.50;99.90;;;;;;7397128;19;20123;-81
2022/09/03 01:40:30;;;;;;;2.58;1.00;;;20.30;99.90;;;;;;7397929;19;20152;-80
2022/09/03 01:43:22;;;;;;;1.55;0.90;;;20.20;99.90;;;;;;7397161;19;20118;-82
2022/09/03 01:46:00;;;;;;;1.33;1.10;;;20.30;99.90;;;;;;7396031;19;20452;-84
2022/09/03 01:48:46;;;;;;;1.30;1.10;;;20.40;99.90;;;;;;7396227;19;20147;-81
2022/09/03 01:51:18;;;;;;;3.28;1.17;;;20.50;99.90;;;;;;7398551;19;20131;-82
2022/09/03 01:54:02;;;;;;;1.65;0.90;;;20.50;99.90;;;;;;7396597;19;20126;-82
2022/09/03 01:56:43;;;;;;;3.55;1.15;;;20.50;99.90;;;;;;7398866;19;20131;-77
2022/09/03 01:59:20;;;;;;;1.58;0.98;;;20.60;99.90;;;;;;7395186;19;20149;-78
2022/09/03 02:02:02;;;;;;;3.05;1.15;;;20.60;99.90;;;;;;7398255;19;20141;-82
2022/09/03 02:04:28;;;;;;;1.98;0.95;;;20.60;99.90;;;;;;7395796;19;20465;-81
2022/09/03 02:06:56;;;;;;;2.58;0.90;;;20.60;99.90;;;;;;7394933;19;20187;-81
2022/09/03 02:09:22;;;;;;;0.90;0.80;;;20.50;99.90;;;;;;7396762;19;20143;-82
2022/09/03 02:12:13;;;;;;;2.40;1.45;;;20.50;99.90;;;;;;7397127;19;20532;-82
2022/09/03 02:14:39;;;;;;;2.33;1.40;;;20.60;99.90;;;;;;7396237;19;20140;-82
2022/09/03 02:17:06;;;;;;;1.80;1.30;;;20.50;99.90;;;;;;7398068;19;20726;-80
2022/09/03 02:19:33;;;;;;;2.55;1.45;;;20.60;99.90;;;;;;7398157;19;20146;-81
2022/09/03 02:21:59;;;;;;;1.67;1.30;;;20.60;99.90;;;;;;7397332;19;20590;-81
2022/09/03 02:24:26;;;;;;;1.77;1.17;;;20.50;99.90;;;;;;7396446;19;20993;-81
2022/09/03 02:26:53;;;;;;;2.00;1.20;;;20.50;99.90;;;;;;7399884;19;20209;-83
2022/09/03 02:29:19;;;;;;;1.75;1.30;;;20.50;99.90;;;;;;7397254;19;20170;-82
2022/09/03 02:31:45;;;;;;;3.88;1.60;;;20.60;99.90;;;;;;7397158;19;20254;-82
2022/09/03 02:34:11;;;;;;;2.67;1.20;;;20.60;99.90;;;;;;7400651;19;20133;-82
2022/09/03 02:36:40;;;;;;;1.13;0.88;;;20.60;99.90;;;;;;7399412;19;20645;-80
2022/09/03 02:39:06;;;;;;;1.50;1.10;;;20.70;99.90;;;;;;7404767;19;20147;-82
2022/09/03 02:41:33;;;;;;;3.45;1.20;;;20.70;99.90;;;;;;7400832;19;20151;-81
2022/09/03 02:44:12;;;;;;;1.42;1.02;;;20.60;99.90;;;;;;7399589;19;20134;-80
2022/09/03 02:46:45;;;;;;;2.13;1.33;;;20.50;99.90;;;;;;7398327;19;20143;-82
2022/09/03 02:49:11;;;;;;;3.45;1.65;;;20.50;99.90;;;;;;7401806;19;20138;-81
2022/09/03 02:51:40;;;;;;;3.83;1.20;;;20.50;99.90;;;;;;7400311;19;20161;-81
2022/09/03 02:54:08;;;;;;;1.67;1.23;;;20.40;99.90;;;;;;7393788;19;20611;-81
2022/09/03 02:56:34;;;;;;;2.38;1.15;;;20.20;99.90;;;;;;7395287;19;20127;-81
2022/09/03 02:59:01;;;;;;;1.67;0.90;;;20.20;99.90;;;;;;7396117;19;20172;-82
2022/09/03 03:01:27;;;;;;;2.10;1.02;;;20.20;99.90;;;;;;7395095;19;20158;-80
2022/09/03 03:03:53;;;;;;;1.05;0.77;;;19.90;99.90;;;;;;7393301;19;20151;-76
2022/09/03 03:06:19;;;;;;;1.50;0.82;;;20.00;99.90;;;;;;7395068;19;20189;-81
2022/09/03 03:08:46;;;;;;;4.00;1.00;;;20.10;99.90;;;;;;7394189;19;20142;-81
2022/09/03 03:11:15;;;;;;;2.38;0.98;;;20.20;99.90;;;;;;7392958;19;20155;-82
2022/09/03 03:13:41;;;;;;;1.30;0.70;;;20.20;99.90;;;;;;7391822;19;20135;-80
2022/09/03 03:16:06;;;;;;;2.95;1.02;;;20.30;99.90;;;;;;7392940;19;20514;-81
2022/09/03 03:18:33;;;;;;;1.90;1.08;;;20.30;99.90;;;;;;7394276;19;20180;-79
2022/09/03 03:21:08;;;;;;;5.07;1.10;;;20.30;99.90;;;;;;7395949;19;20143;-81
2022/09/03 03:23:35;;;;;;;1.13;0.77;;;20.30;99.90;;;;;;7392566;19;20134;-81
2022/09/03 03:26:03;;;;;;;1.85;1.02;;;20.20;99.90;;;;;;7396452;19;20150;-80
2022/09/03 03:28:32;;;;;;;3.35;1.10;;;20.00;99.90;;;;;;7393092;19;20172;-81
2022/09/03 03:31:04;;;;;;;1.65;1.00;;;20.00;99.90;;;;;;7394470;19;20496;-81
2022/09/03 03:33:30;;;;;;;1.63;1.00;;;20.10;99.90;;;;;;7392622;19;20167;-81
2022/09/03 03:35:56;;;;;;;2.38;1.25;;;20.20;99.90;;;;;;7392491;19;20126;-81
2022/09/03 03:38:21;;;;;;;1.25;1.08;;;20.20;99.90;;;;;;7392862;19;20862;-81
2022/09/03 03:40:47;;;;;;;2.67;1.15;;;20.10;99.90;;;;;;7393614;19;21674;-78
2022/09/03 03:43:13;;;;;;;2.10;1.38;;;20.20;99.90;;;;;;7393668;19;20606;-82
2022/09/03 03:45:39;;;;;;;1.23;0.90;;;20.20;99.90;;;;;;7392935;19;20145;-80
2022/09/03 03:48:04;;;;;;;1.10;0.80;;;20.10;99.90;;;;;;7393026;19;20135;-82
2022/09/03 03:50:30;;;;;;;2.00;1.13;;;20.10;99.90;;;;;;7393497;19;20147;-82
2022/09/03 03:52:59;;;;;;;4.22;1.00;;;20.10;99.90;;;;;;7393081;19;20134;-81
2022/09/03 03:55:25;;;;;;;2.25;1.20;;;20.00;99.90;;;;;;7394456;19;20146;-81
2022/09/03 03:57:50;;;;;;;2.03;1.13;;;20.10;99.90;;;;;;7392483;19;20134;-82
2022/09/03 04:00:17;;;;;;;1.58;1.10;;;20.10;99.90;;;;;;7391672;19;20584;-82
2022/09/03 04:02:42;;;;;;;1.30;0.95;;;20.20;99.90;;;;;;7395208;19;20490;-81
2022/09/03 04:05:08;;;;;;;1.08;0.82;;;20.20;99.90;;;;;;7393956;19;20146;-82
2022/09/03 04:07:34;;;;;;;1.17;0.90;;;20.10;99.90;;;;;;7393309;19;20145;-82
2022/09/03 04:10:00;;;;;;;1.95;0.90;;;20.20;99.90;;;;;;7392142;19;20509;-81
2022/09/03 04:12:26;;;;;;;1.52;1.05;;;20.10;99.90;;;;;;7389813;19;20260;-80
2022/09/03 04:14:52;;;;;;;1.60;0.80;;;19.70;99.90;;;;;;7391757;19;20135;-81
2022/09/03 04:17:18;;;;;;;2.15;1.20;;;19.80;99.90;;;;;;7391898;19;20205;-82
2022/09/03 04:19:44;;;;;;;4.50;1.30;;;19.90;99.90;;;;;;7391190;19;20599;-81
2022/09/03 04:22:10;;;;;;;2.45;1.20;;;20.00;99.90;;;;;;7392734;19;20150;-80
2022/09/03 04:24:37;;;;;;;1.40;1.00;;;20.00;99.90;;;;;;7392959;19;20159;-81
2022/09/03 04:27:03;;;;;;;5.53;1.20;;;19.90;99.90;;;;;;7392110;19;20154;-81
2022/09/03 04:29:30;;;;;;;2.35;1.10;;;19.90;99.90;;;;;;7392453;19;20517;-81
2022/09/03 04:34:44;;;;;;;2.10;1.08;;;19.90;99.90;;;;;;7391801;19;20494;-80
2022/09/03 04:37:10;;;;;;;1.38;1.27;;;19.80;99.90;;;;;;7394998;19;20166;-79
2022/09/03 04:39:36;;;;;;;0.90;0.85;;;19.90;99.90;;;;;;7395974;19;20142;-80
2022/09/03 04:42:02;;;;;;;1.23;1.00;;;19.90;99.90;;;;;;7395041;19;20157;-81
2022/09/03 04:44:28;;;;;;;2.30;0.90;;;19.80;99.90;;;;;;7393613;19;20572;-82
2022/09/03 04:46:53;;;;;;;1.60;1.17;;;19.80;99.90;;;;;;7393576;19;20596;-81
2022/09/03 04:49:19;;;;;;;1.08;0.98;;;19.90;99.90;;;;;;7392240;19;20138;-81
2022/09/03 04:51:45;;;;;;;2.47;1.10;;;19.90;99.90;;;;;;7392598;19;20498;-81
2022/09/03 04:54:11;;;;;;;1.67;1.00;;;19.90;99.90;;;;;;7389655;19;20147;-80
2022/09/03 04:56:38;;;;;;;1.15;1.02;;;20.00;99.90;;;;;;7391044;19;20150;-80
2022/09/03 04:59:05;;;;;;;5.97;1.20;;;19.70;99.90;;;;;;7390966;19;20190;-80
2022/09/03 05:01:34;;;;;;;1.00;0.90;;;19.80;99.90;;;;;;7390336;19;20498;-82
2022/09/03 05:04:00;;;;;;;2.78;1.10;;;19.70;99.90;;;;;;7390476;19;20166;-81
2022/09/03 05:06:27;;;;;;;3.17;1.00;;;19.80;99.90;;;;;;7390579;19;20158;-82
2022/09/03 05:08:54;;;;;;;2.50;1.15;;;19.90;99.90;;;;;;7389264;19;20189;-78
2022/09/03 05:11:21;;;;;;;2.47;1.02;;;19.90;99.90;;;;;;7390610;19;20147;-79
2022/09/03 05:13:49;;;;;;;2.58;1.20;;;19.70;99.90;;;;;;7389308;19;20175;-79
2022/09/03 05:16:16;;;;;;;1.67;1.20;;;19.60;99.90;;;;;;7391524;19;20131;-81
2022/09/03 05:18:43;;;;;;;1.83;1.00;;;19.80;99.90;;;;;;7391363;19;20511;-81
2022/09/03 05:21:11;;;;;;;1.50;1.05;;;19.80;99.90;;;;;;7388915;19;20131;-80
2022/09/03 05:23:43;;;;;;;1.23;1.13;;;19.70;99.90;;;;;;7390200;19;20153;-81
2022/09/03 05:26:15;;;;;;;1.52;1.02;;;19.60;99.90;;;;;;7390977;19;20127;-81
2022/09/03 05:28:42;;;;;;;1.30;1.05;;;19.50;99.90;;;;;;7391632;19;20122;-82
2022/09/03 05:31:10;;;;;;;4.25;1.33;;;19.60;99.90;;;;;;7390308;19;20608;-81
2022/09/03 05:33:38;;;;;;;2.58;1.25;;;19.70;99.90;;;;;;7388502;19;20154;-81
2022/09/03 05:36:07;;;;;;;2.15;1.20;;;19.80;99.90;;;;;;7389494;19;20134;-81
2022/09/03 05:38:33;;;;;;;1.65;1.30;;;19.90;99.90;;;;;;7394758;19;20139;-82
2022/09/03 05:41:05;;;;;;;2.17;1.40;;;20.00;99.90;;;;;;7398145;19;20157;-81
2022/09/03 05:43:31;;;;;;;1.30;1.20;;;20.00;99.90;;;;;;7396887;19;20154;-82
2022/09/03 05:45:59;;;;;;;1.30;1.20;;;20.00;99.90;;;;;;7397350;19;20138;-81
2022/09/03 05:48:26;;;;;;;2.33;1.38;;;20.00;99.90;;;;;;7397192;19;20138;-81
2022/09/03 05:51:07;;;;;;;1.45;1.20;;;19.90;99.90;;;;;;7398109;19;20142;-82
2022/09/03 05:53:35;;;;;;;2.67;1.20;;;19.80;99.90;;;;;;7395650;19;20159;-82
2022/09/03 05:56:06;;;;;;;3.97;1.40;;;19.60;99.90;;;;;;7396509;19;20197;-82
2022/09/03 05:58:34;;;;;;;1.80;1.30;;;19.60;99.90;;;;;;7396489;19;20127;-82
2022/09/03 06:01:13;;;;;;;1.50;1.38;;;19.50;99.90;;;;;;7397929;19;20576;-84
2022/09/03 06:03:40;;;;;;;1.73;1.25;;;19.80;99.90;;;;;;7396286;19;20169;-77
2022/09/03 06:06:06;;;;;;;3.35;1.20;;;19.90;99.90;;;;;;7396318;19;20154;-81
2022/09/03 06:08:33;;;;;;;2.28;1.50;;;20.00;99.90;;;;;;7398504;19;20154;-80
2022/09/03 06:11:02;;;;;;;1.95;1.27;;;20.10;99.90;;;;;;7395416;19;20169;-78
2022/09/03 06:13:28;;;;;;;1.58;1.17;;;20.10;99.90;;;;;;7395406;19;20134;-82
2022/09/03 06:15:58;;;;;;;1.20;1.10;;;20.10;99.90;;;;;;7396012;19;20140;-80
2022/09/03 06:18:28;;;;;;;1.60;1.40;;;20.20;99.90;;;;;;7393946;19;20150;-80
2022/09/03 06:20:59;;;;;;;1.52;1.30;;;20.20;99.90;;;;;;7393108;19;20164;-81
2022/09/03 06:23:26;;;;;;;2.25;1.50;;;20.00;99.90;;;;;;7395676;19;20130;-82
2022/09/03 06:26:12;;;;;;;1.60;1.30;;;19.80;99.90;;;;;;7395186;19;20129;-81
2022/09/03 06:28:42;;;;;;;2.22;1.35;;;20.00;99.90;;;;;;7393781;19;20138;-81
2022/09/03 06:31:10;;;;;;;1.10;1.00;;;20.10;99.90;;;;;;7393796;19;20151;-81
2022/09/03 06:33:37;;;;;;;1.77;1.20;;;20.20;99.90;;;;;;7392336;19;20142;-80
2022/09/03 06:36:08;;;;;;;1.65;1.38;;;20.30;99.90;;;;;;7391104;19;20134;-80
2022/09/03 06:38:36;;;;;;;1.40;1.17;;;20.30;99.90;;;;;;7396040;19;20134;-81
2022/09/03 06:41:04;;;;;;;1.58;1.17;;;20.20;99.90;;;;;;7388506;19;20134;-80
2022/09/03 06:43:33;;;;;;;1.48;1.13;;;20.20;99.90;;;;;;7393352;19;20143;-80
2022/09/03 06:46:01;;;;;;;1.50;1.40;;;20.30;99.90;;;;;;7391423;19;20856;-82
2022/09/03 06:48:30;;;;;;;2.17;1.58;;;20.40;99.90;;;;;;7391857;19;20702;-81
2022/09/03 06:51:05;;;;;;;3.42;1.48;;;20.40;99.90;;;;;;7391729;19;20130;-80
2022/09/03 06:53:33;;;;;;;1.60;1.25;;;20.50;99.90;;;;;;7394294;19;20133;-81
2022/09/03 06:56:04;;;;;;;2.05;1.30;;;20.40;99.90;;;;;;7392835;19;20158;-81
2022/09/03 06:58:34;;;;;;;2.28;1.38;;;20.30;99.90;;;;;;7393384;19;20198;-82
2022/09/03 07:01:02;;;;;;;2.28;1.50;;;20.30;99.90;;;;;;7386454;19;20142;-80
2022/09/03 07:03:28;;;;;;;2.80;1.52;;;20.40;99.90;;;;;;7391025;19;20142;-81
2022/09/03 07:06:00;;;;;;;1.92;1.40;;;20.50;99.90;;;;;;7393254;19;20201;-81
2022/09/03 07:08:26;;;;;;;2.33;1.40;;;20.40;99.90;;;;;;7391004;19;20138;-79
2022/09/03 07:10:52;;;;;;;2.17;1.60;;;20.10;99.90;;;;;;7391774;19;20182;-82
2022/09/03 07:13:19;;;;;;;1.75;1.50;;;20.20;99.90;;;;;;7392074;19;20154;-82
2022/09/03 07:15:44;;;;;;;2.80;1.60;;;20.40;99.90;;;;;;7392809;19;20137;-81
2022/09/03 07:18:10;;;;;;;1.85;1.40;;;20.60;99.90;;;;;;7391096;19;20584;-82
2022/09/03 07:20:36;;;;;;;1.45;1.20;;;20.70;99.90;;;;;;7391607;19;20149;-75
2022/09/03 07:23:02;;;;;;;1.98;1.33;;;20.70;99.90;;;;;;7392587;19;20135;-79
2022/09/03 07:25:30;;;;;;;2.00;1.48;;;20.80;99.90;;;;;;7393884;19;20139;-78
2022/09/03 07:27:57;;;;;;;1.73;1.40;;;20.90;99.90;;;;;;7393191;19;20151;-76
2022/09/03 07:30:25;;;;;;;1.20;1.10;;;20.90;99.90;;;;;;7390804;19;20233;-78
2022/09/03 07:32:52;;;;;;;3.50;1.60;;;20.90;99.90;;;;;;7394145;19;20621;-76
2022/09/03 07:35:18;;;;;;;1.50;1.40;;;20.90;99.90;;;;;;7391912;19;20146;-77
2022/09/03 07:37:44;;;;;;;2.38;1.38;;;20.90;99.90;;;;;;7395393;19;20182;-77
2022/09/03 07:40:10;;;;;;;2.50;1.40;;;20.80;99.90;;;;;;7393032;19;20541;-76
2022/09/03 07:42:40;;;;;;;2.50;1.55;;;20.80;99.90;;;;;;7394997;19;20247;-77
2022/09/03 07:45:09;;;;;;;2.42;1.73;;;20.70;99.90;;;;;;7393585;19;20592;-77
2022/09/03 07:47:36;;;;;;;2.05;1.40;;;20.60;99.90;;;;;;7396149;19;20134;-79
2022/09/03 07:50:04;;;;;;;3.40;1.88;;;20.70;99.90;;;;;;7395828;19;20209;-81
2022/09/03 07:52:30;;;;;;;3.75;1.60;;;21.20;99.90;;;;;;7398253;19;20142;-83
2022/09/03 07:54:56;;;;;;;2.50;1.60;;;21.50;99.90;;;;;;7396051;19;20155;-81
2022/09/03 07:57:21;;;;;;;4.20;1.77;;;21.70;99.90;;;;;;7399360;19;20467;-83
2022/09/03 07:59:47;;;;;;;2.33;1.90;;;21.70;99.90;;;;;;7401053;19;20138;-81
2022/09/03 08:02:13;;;;;;;3.38;1.48;;;21.90;99.90;;;;;;7400237;19;20131;-80
2022/09/03 08:04:39;;;;;;;1.80;1.70;;;21.90;99.90;;;;;;7399699;19;20130;-79
2022/09/03 08:07:05;;;;;;;3.65;1.52;;;21.90;99.90;;;;;;7396083;19;20515;-81
2022/09/03 08:09:31;;;;;;;2.00;1.70;;;22.00;99.90;;;;;;7399783;19;20142;-82
2022/09/03 08:11:59;;;;;;;2.03;1.70;;;21.90;99.90;;;;;;7397985;19;20178;-81
2022/09/03 08:14:24;;;;;;;4.63;1.85;;;21.80;99.90;;;;;;7396104;19;20147;-79
2022/09/03 08:16:50;;;;;;;3.22;1.50;;;21.70;99.90;;;;;;7390308;19;20607;-78
2022/09/03 08:19:17;;;;;;;1.70;1.40;;;21.60;99.90;;;;;;7379750;19;20142;-80
2022/09/03 08:21:43;;;;;;;4.75;1.48;;;21.60;99.90;;;;;;7385486;19;20138;-80
2022/09/03 08:24:11;;;;;;;2.05;1.60;;;21.60;99.90;;;;;;7390830;19;20162;-80
2022/09/03 08:26:40;;;;;;;2.28;1.67;;;21.70;99.90;;;;;;7390786;19;20446;-82
2022/09/03 08:29:09;;;;;;;1.65;1.55;;;21.80;99.90;;;;;;7388978;19;20640;-82
2022/09/03 08:31:35;;;;;;;4.30;1.65;;;22.00;99.90;;;;;;7389801;19;20165;-83
2022/09/03 08:34:04;;;;;;;2.03;1.75;;;22.10;99.90;;;;;;7387143;19;20563;-81
2022/09/03 08:36:32;;;;;;;1.92;1.63;;;22.30;99.90;;;;;;7386359;19;20161;-81
2022/09/03 08:39:06;;;;;;;2.63;1.92;;;22.60;99.90;;;;;;7387679;19;20155;-83
2022/09/03 08:41:52;;;;;;;3.65;1.92;;;22.80;99.90;;;;;;7387481;19;20142;-83
2022/09/03 08:44:49;;;;;;;3.22;1.70;;;22.90;99.90;;;;;;7392866;19;20598;-84
2022/09/03 08:47:42;;;;;;;2.70;2.00;;;23.00;99.90;;;;;;7390748;19;20154;-82
2022/09/03 08:50:25;;;;;;;2.33;1.98;;;23.00;99.90;;;;;;7390394;19;20825;-78
2022/09/03 08:53:00;;;;;;;2.38;1.63;;;23.10;99.90;;;;;;7391961;19;20157;-83
2022/09/03 08:55:29;;;;;;;3.88;1.73;;;23.30;99.90;;;;;;7390694;19;20227;-78
2022/09/03 08:58:07;;;;;;;2.35;1.80;;;23.20;99.90;;;;;;7387568;19;20146;-79
2022/09/03 09:01:11;;;;;;;2.22;2.03;;;23.20;99.90;;;;;;7384873;19;20489;-86
2022/09/03 09:04:08;;;;;;;2.22;1.98;;;23.20;99.90;;;;;;7390284;19;20246;-81
2022/09/03 09:06:40;;;;;;;3.90;1.80;;;23.10;99.90;;;;;;7390790;19;20153;-78
2022/09/03 09:09:40;;;;;;;2.80;1.60;;;22.90;99.90;;;;;;7390610;19;20238;-80
2022/09/03 09:12:32;;;;;;;3.47;1.95;;;22.80;99.90;;;;;;7387019;19;20155;-80
2022/09/03 09:15:29;;;;;;;2.33;1.63;;;22.70;99.90;;;;;;7393961;19;20153;-81
2022/09/03 09:18:36;;;;;;;2.80;1.63;;;22.70;99.90;;;;;;7393106;19;20169;-81
2022/09/03 09:21:13;;;;;;;1.80;1.70;;;22.60;99.90;;;;;;7393088;19;20614;-82
2022/09/03 09:23:46;;;;;;;5.50;2.03;;;22.60;99.90;;;;;;7394919;19;20161;-80
2022/09/03 09:26:15;;;;;;;2.80;1.80;;;22.60;99.90;;;;;;7391725;19;20631;-82
2022/09/03 09:28:48;;;;;;;2.00;1.73;;;22.50;99.90;;;;;;7393966;19;20640;-81
2022/09/03 09:31:17;;;;;;;2.00;1.83;;;22.40;99.90;;;;;;7393728;19;20150;-81
2022/09/03 09:33:44;;;;;;;3.80;2.05;;;22.40;99.90;;;;;;7392540;19;20141;-80
2022/09/03 09:36:15;;;;;;;2.72;2.10;;;22.30;99.90;;;;;;7392915;19;20150;-81
2022/09/03 09:38:41;;;;;;;2.75;2.10;;;22.30;99.90;;;;;;7392994;19;20150;-80
2022/09/03 09:41:12;;;;;;;2.40;2.20;;;22.40;99.90;;;;;;7393267;19;20153;-81
2022/09/03 09:43:39;;;;;;;4.03;2.10;;;22.60;99.90;;;;;;7395549;19;20150;-81
2022/09/03 09:46:20;;;;;;;2.60;2.00;;;22.80;99.90;;;;;;7397798;19;20222;-81
2022/09/03 09:48:52;;;;;;;2.20;2.00;;;23.00;99.90;;;;;;7397591;19;20167;-85
2022/09/03 09:51:29;;;;;;;2.10;1.83;;;23.10;99.90;;;;;;7394399;19;20167;-81
2022/09/03 09:54:18;;;;;;;1.85;1.70;;;23.10;99.90;;;;;;7393620;19;20214;-85
2022/09/03 09:56:46;;;;;;;2.42;2.20;;;23.20;99.90;;;;;;7392619;19;20142;-87
2022/09/03 09:59:14;;;;;;;3.25;2.03;;;23.20;99.90;;;;;;7394651;19;20138;-84
2022/09/03 10:01:43;;;;;;;2.30;2.00;;;23.00;99.90;;;;;;7392878;19;20161;-81
2022/09/03 10:04:09;;;;;;;3.13;2.33;;;23.10;99.90;;;;;;7393322;19;20230;-82
2022/09/03 10:06:54;;;;;;;2.42;1.90;;;23.10;99.90;;;;;;7395219;19;20491;-82
2022/09/03 10:09:22;;;;;;;2.45;2.20;;;23.10;99.90;;;;;;7392531;19;20158;-81
2022/09/03 10:12:13;;;;;;;2.28;1.88;;;23.20;99.90;;;;;;7392520;19;20155;-83
2022/09/03 10:15:02;;;;;;;2.25;2.00;;;23.10;99.90;;;;;;7395389;19;20138;-82
2022/09/03 10:17:52;;;;;;;2.20;2.00;;;23.00;99.90;;;;;;7388429;19;20149;-84
2022/09/03 10:20:32;;;;;;;2.58;1.90;;;23.10;99.90;;;;;;7395973;19;20169;-82
2022/09/03 10:23:10;;;;;;;5.82;2.30;;;23.20;99.90;;;;;;7395478;19;20502;-82
2022/09/03 10:26:06;;;;;;;4.60;2.55;;;23.20;99.90;;;;;;7398256;19;20154;-84
2022/09/03 10:28:38;;;;;;;4.22;2.45;;;23.20;99.90;;;;;;7396268;19;20139;-83
2022/09/03 10:31:25;;;;;;;2.90;2.38;;;23.10;99.90;;;;;;7396753;19;20135;-83
2022/09/03 10:33:54;;;;;;;2.08;1.83;;;23.20;99.90;;;;;;7396951;19;20161;-83
2022/09/03 10:36:40;;;;;;;2.50;2.30;;;23.20;99.90;;;;;;7396314;19;20151;-85
2022/09/03 10:39:36;;;;;;;2.83;2.20;;;23.20;99.90;;;;;;7393737;19;20173;-86
2022/09/03 10:42:20;;;;;;;2.08;1.88;;;23.30;99.90;;;;;;7395805;19;20194;-82
2022/09/03 10:45:17;;;;;;;3.20;1.92;;;23.40;99.90;;;;;;7395349;19;20595;-84
2022/09/03 10:47:52;;;;;;;2.35;2.15;;;23.50;99.90;;;;;;7395533;19;20138;-83
2022/09/03 10:50:26;;;;;;;3.53;1.80;;;23.50;99.90;;;;;;7396342;19;20829;-83
2022/09/03 10:53:04;;;;;;;2.20;1.70;;;23.30;99.90;;;;;;7396461;19;20145;-83
2022/09/03 10:55:59;;;;;;;3.28;2.30;;;23.40;99.90;;;;;;7390500;19;20238;-83
2022/09/03 10:58:39;;;;;;;2.00;1.80;;;23.70;99.90;;;;;;7387285;19;20154;-84
2022/09/03 11:01:25;;;;;;;3.30;1.88;;;23.70;99.90;;;;;;7392941;19;20190;-84
2022/09/03 11:04:29;;;;;;;3.33;2.08;;;23.70;99.90;;;;;;7392224;19;20146;-84
2022/09/03 11:07:08;;;;;;;2.88;2.10;;;23.60;99.90;;;;;;7393091;19;20162;-82
2022/09/03 11:10:11;;;;;;;3.17;2.03;;;23.60;99.90;;;;;;7394918;19;20568;-84
2022/09/03 11:13:09;;;;;;;2.40;2.00;;;23.40;99.90;;;;;;7395546;19;20237;-80
2022/09/03 11:15:45;;;;;;;2.17;1.98;;;23.20;99.90;;;;;;7391813;19;20157;-84
2022/09/03 11:18:28;;;;;;;3.10;2.28;;;23.10;99.90;;;;;;7395427;19;20141;-84
2022/09/03 11:20:59;;;;;;;2.40;2.20;;;23.30;99.90;;;;;;7392740;19;20139;-83
2022/09/03 11:23:28;;;;;;;3.05;2.10;;;23.40;99.90;;;;;;7394767;19;20134;-83
2022/09/03 11:26:01;;;;;;;2.80;2.35;;;23.50;99.90;;;;;;7394606;19;20689;-82
2022/09/03 11:28:51;;;;;;;2.33;2.13;;;23.50;99.90;;;;;;7394249;19;20512;-84
2022/09/03 11:31:55;;;;;;;2.40;2.20;;;23.50;99.90;;;;;;7394175;19;20122;-83
2022/09/03 11:34:26;;;;;;;2.70;2.10;;;23.50;99.90;;;;;;7386594;19;20165;-83
2022/09/03 11:37:16;;;;;;;3.55;2.60;;;23.50;99.90;;;;;;7391509;19;20631;-83
2022/09/03 11:39:42;;;;;;;2.72;2.13;;;23.60;99.90;;;;;;7390823;19;20147;-85
2022/09/03 11:42:24;;;;;;;2.60;2.08;;;23.60;99.90;;;;;;7393166;19;20130;-83
2022/09/03 11:44:50;;;;;;;2.63;2.25;;;23.50;99.90;;;;;;7390562;19;20143;-82
2022/09/03 11:47:22;;;;;;;2.85;2.03;;;23.50;99.90;;;;;;7390019;19;20595;-82
2022/09/03 11:49:50;;;;;;;2.63;2.42;;;23.40;99.90;;;;;;7391981;19;20153;-83
2022/09/03 11:52:28;;;;;;;4.22;2.30;;;23.20;99.90;;;;;;7393232;19;20166;-82
2022/09/03 11:54:54;;;;;;;2.70;2.25;;;23.20;99.90;;;;;;7402952;19;20138;-81
2022/09/03 11:57:32;;;;;;;2.83;2.28;;;23.30;99.90;;;;;;7402544;19;20171;-82
2022/09/03 12:00:16;;;;;;;2.33;2.13;;;23.40;99.90;;;;;;7398049;19;20141;-82
2022/09/03 12:03:00;;;;;;;2.85;2.10;;;23.40;99.90;;;;;;7391972;19;20502;-81
2022/09/03 12:05:46;;;;;;;3.60;2.10;;;23.20;99.90;;;;;;7393351;19;20134;-82
2022/09/03 12:08:42;;;;;;;3.83;1.77;;;23.10;99.90;;;;;;7391820;19;20126;-80
2022/09/03 12:11:29;;;;;;;1.95;1.63;;;23.10;99.90;;;;;;7391454;19;20182;-83
2022/09/03 12:14:26;;;;;;;2.20;2.00;;;23.00;99.90;;;;;;7390109;19;20134;-83
2022/09/03 12:17:17;;;;;;;2.30;1.90;;;23.00;99.90;;;;;;7391072;19;20134;-82
2022/09/03 12:19:52;;;;;;;2.15;1.95;;;22.90;99.90;;;;;;7386577;19;20154;-83
2022/09/03 12:22:20;;;;;;;1.73;1.63;;;22.90;99.90;;;;;;7389606;19;20191;-82
2022/09/03 12:24:47;;;;;;;2.33;2.13;;;22.90;99.90;;;;;;7388786;19;20145;-82
2022/09/03 12:27:25;;;;;;;2.55;2.35;;;22.90;99.90;;;;;;7391766;19;20146;-81
2022/09/03 12:29:59;;;;;;;6.03;2.55;;;22.90;99.90;;;;;;7391293;19;20135;-83
2022/09/03 12:32:31;;;;;;;3.20;2.40;;;22.90;99.90;;;;;;7389228;19;20156;-84
2022/09/03 12:34:57;;;;;;;3.38;2.33;;;22.90;99.90;;;;;;7391775;19;20164;-83
2022/09/03 12:37:25;;;;;;;5.65;2.30;;;22.80;99.90;;;;;;7392507;19;20173;-81
2022/09/03 12:39:55;;;;;;;2.97;2.00;;;22.80;99.90;;;;;;7390898;19;20143;-82
2022/09/03 12:42:31;;;;;;;2.95;1.83;;;22.70;99.90;;;;;;7393264;19;20142;-81
2022/09/03 12:45:14;;;;;;;3.45;1.60;;;22.50;99.90;;;;;;7394283;19;20182;-83
2022/09/03 12:47:42;;;;;;;2.17;1.60;;;22.20;99.90;;;;;;7398535;19;20229;-82
2022/09/03 12:50:11;;;;;;;2.17;1.77;;;22.10;99.90;;;;;;7398867;19;20167;-80
2022/09/03 12:53:02;;;;;;;3.25;1.80;;;22.10;99.90;;;;;;7400367;19;20134;-84
2022/09/03 12:55:39;;;;;;;3.20;1.95;;;21.80;99.90;;;;;;7392115;19;20158;-83
2022/09/03 12:58:22;;;;;;;2.20;1.80;;;21.80;99.90;;;;;;7393864;19;20122;-81
2022/09/03 13:01:13;;;;;;;2.85;1.33;;;21.70;99.90;;;;;;7394344;19;20169;-83
2022/09/03 13:04:08;;;;;;;4.05;1.55;;;21.70;99.90;;;;;;7395403;19;20161;-83
2022/09/03 13:07:02;;;;;;;2.25;1.40;;;21.60;99.90;;;;;;7398176;19;20225;-84
2022/09/03 13:09:32;;;;;;;1.90;1.50;;;21.50;99.90;;;;;;7397649;19;20126;-81
2022/09/03 13:11:58;;;;;;;1.48;1.20;;;21.40;99.90;;;;;;7397750;19;20281;-84
2022/09/03 13:14:26;;;;;;;3.85;1.85;;;21.40;99.90;;;;;;7399023;19;20150;-83
2022/09/03 13:17:15;;;;;;;1.70;1.20;;;21.40;99.90;;;;;;7399901;19;20137;-84
2022/09/03 13:19:59;;;;;;;2.13;1.20;;;21.20;99.90;;;;;;7397780;19;20143;-82
2022/09/03 13:22:36;;;;;;;3.53;1.60;;;21.20;99.90;;;;;;7396899;19;20165;-81
2022/09/03 13:25:26;;;;;;;1.65;1.10;;;21.20;99.90;;;;;;7402075;19;20225;-84